sensor_id;sensor_type;location;lat;lon;timestamp;P1;durP1;ratioP1;P2;durP2;ratioP2
59308;SDS011;48433;53.016;-2.260;2023-03-14T00:02:20;11.15;;;2.28;;
59308;SDS011;48433;53.016;-2.260;2023-03-14T00:04:48;7.38;;;2.03;;
59308;SDS011;48433;53.016;-2.260;2023-03-14T00:07:15;10.98;;;2.40;;
59308;SDS011;48433;53.016;-2.260;2023-03-14T00:09:43;5.78;;;2.00;;
59308;SDS011;48433;53.016;-2.260;2023-03-14T00:12:11;7.47;;;2.08;;
59308;SDS011;48433;53.016;-2.260;2023-03-14T00:14:41;6.97;;;2.20;;
59308;SDS011;48433;53.016;-2.260;2023-03-14T00:17:10;6.28;;;2.65;;
59308;SDS011;48433;53.016;-2.260;2023-03-14T00:19:38;7.25;;;2.15;;
59308;SDS011;48433;53.016;-2.260;2023-03-14T00:22:05;7.85;;;2.00;;
59308;SDS011;48433;53.016;-2.260;2023-03-14T00:24:33;6.80;;;2.42;;
59308;SDS011;48433;53.016;-2.260;2023-03-14T00:27:01;6.70;;;2.30;;
59308;SDS011;48433;53.016;-2.260;2023-03-14T00:29:29;3.35;;;1.40;;
59308;SDS011;48433;53.016;-2.260;2023-03-14T00:31:57;5.88;;;2.22;;
59308;SDS011;48433;53.016;-2.260;2023-03-14T00:34:28;6.50;;;1.95;;
59308;SDS011;48433;53.016;-2.260;2023-03-14T00:36:56;6.15;;;1.52;;
59308;SDS011;48433;53.016;-2.260;2023-03-14T00:39:24;7.20;;;1.67;;
59308;SDS011;48433;53.016;-2.260;2023-03-14T00:41:51;4.53;;;1.40;;
59308;SDS011;48433;53.016;-2.260;2023-03-14T00:44:21;9.20;;;1.85;;
59308;SDS011;48433;53.016;-2.260;2023-03-14T00:46:49;5.13;;;1.50;;
59308;SDS011;48433;53.016;-2.260;2023-03-14T00:49:16;5.55;;;1.48;;
59308;SDS011;48433;53.016;-2.260;2023-03-14T00:51:44;4.40;;;1.40;;
59308;SDS011;48433;53.016;-2.260;2023-03-14T00:54:11;1.50;;;0.95;;
59308;SDS011;48433;53.016;-2.260;2023-03-14T00:56:39;3.28;;;1.10;;
59308;SDS011;48433;53.016;-2.260;2023-03-14T00:59:07;6.80;;;1.67;;
59308;SDS011;48433;53.016;-2.260;2023-03-14T01:01:35;4.93;;;1.40;;
59308;SDS011;48433;53.016;-2.260;2023-03-14T01:04:03;6.00;;;1.75;;
59308;SDS011;48433;53.016;-2.260;2023-03-14T01:06:31;2.25;;;0.98;;
59308;SDS011;48433;53.016;-2.260;2023-03-14T01:08:59;6.57;;;1.60;;
59308;SDS011;48433;53.016;-2.260;2023-03-14T01:11:28;3.90;;;1.35;;
59308;SDS011;48433;53.016;-2.260;2023-03-14T01:13:58;6.90;;;1.55;;
59308;SDS011;48433;53.016;-2.260;2023-03-14T01:16:29;5.38;;;1.55;;
59308;SDS011;48433;53.016;-2.260;2023-03-14T01:19:00;5.22;;;1.40;;
59308;SDS011;48433;53.016;-2.260;2023-03-14T01:21:30;8.02;;;1.58;;
59308;SDS011;48433;53.016;-2.260;2023-03-14T01:23:59;6.88;;;1.50;;
59308;SDS011;48433;53.016;-2.260;2023-03-14T01:26:29;4.35;;;1.50;;
59308;SDS011;48433;53.016;-2.260;2023-03-14T01:28:58;6.18;;;1.40;;
59308;SDS011;48433;53.016;-2.260;2023-03-14T01:31:27;4.05;;;1.35;;
59308;SDS011;48433;53.016;-2.260;2023-03-14T01:33:55;3.97;;;1.25;;
59308;SDS011;48433;53.016;-2.260;2023-03-14T01:36:23;4.70;;;1.65;;
59308;SDS011;48433;53.016;-2.260;2023-03-14T01:38:51;3.70;;;1.27;;
59308;SDS011;48433;53.016;-2.260;2023-03-14T01:41:20;5.47;;;1.30;;
59308;SDS011;48433;53.016;-2.260;2023-03-14T01:43:52;4.03;;;1.48;;
59308;SDS011;48433;53.016;-2.260;2023-03-14T01:46:25;2.80;;;1.10;;
59308;SDS011;48433;53.016;-2.260;2023-03-14T01:49:01;3.97;;;1.40;;
59308;SDS011;48433;53.016;-2.260;2023-03-14T01:54:10;3.50;;;1.20;;
59308;SDS011;48433;53.016;-2.260;2023-03-14T01:56:48;4.85;;;1.55;;
59308;SDS011;48433;53.016;-2.260;2023-03-14T01:59:27;1.40;;;0.98;;
59308;SDS011;48433;53.016;-2.260;2023-03-14T02:01:57;2.38;;;1.13;;
59308;SDS011;48433;53.016;-2.260;2023-03-14T02:04:29;3.22;;;1.30;;
59308;SDS011;48433;53.016;-2.260;2023-03-14T02:07:10;4.57;;;1.40;;
59308;SDS011;48433;53.016;-2.260;2023-03-14T02:12:24;4.05;;;2.20;;
59308;SDS011;48433;53.016;-2.260;2023-03-14T02:15:30;7.25;;;2.15;;
59308;SDS011;48433;53.016;-2.260;2023-03-14T02:18:17;4.95;;;2.13;;
59308;SDS011;48433;53.016;-2.260;2023-03-14T02:27:00;4.15;;;2.10;;
59308;SDS011;48433;53.016;-2.260;2023-03-14T02:29:49;3.92;;;1.67;;
59308;SDS011;48433;53.016;-2.260;2023-03-14T02:32:20;2.97;;;1.38;;
59308;SDS011;48433;53.016;-2.260;2023-03-14T02:34:52;2.65;;;1.40;;
59308;SDS011;48433;53.016;-2.260;2023-03-14T02:40:13;3.83;;;1.63;;
59308;SDS011;48433;53.016;-2.260;2023-03-14T02:42:42;4.57;;;2.00;;
59308;SDS011;48433;53.016;-2.260;2023-03-14T02:47:54;3.92;;;1.90;;
59308;SDS011;48433;53.016;-2.260;2023-03-14T02:50:28;3.05;;;1.40;;
59308;SDS011;48433;53.016;-2.260;2023-03-14T02:52:57;2.85;;;1.52;;
59308;SDS011;48433;53.016;-2.260;2023-03-14T02:55:25;4.50;;;1.80;;
59308;SDS011;48433;53.016;-2.260;2023-03-14T02:57:58;3.35;;;1.80;;
59308;SDS011;48433;53.016;-2.260;2023-03-14T03:00:27;3.25;;;1.50;;
59308;SDS011;48433;53.016;-2.260;2023-03-14T03:02:57;4.07;;;1.80;;
59308;SDS011;48433;53.016;-2.260;2023-03-14T03:05:25;4.30;;;1.90;;
59308;SDS011;48433;53.016;-2.260;2023-03-14T03:07:53;4.10;;;1.63;;
59308;SDS011;48433;53.016;-2.260;2023-03-14T03:10:24;4.03;;;1.90;;
59308;SDS011;48433;53.016;-2.260;2023-03-14T03:12:52;5.32;;;1.95;;
59308;SDS011;48433;53.016;-2.260;2023-03-14T03:15:23;4.60;;;2.20;;
59308;SDS011;48433;53.016;-2.260;2023-03-14T03:17:52;5.07;;;2.20;;
59308;SDS011;48433;53.016;-2.260;2023-03-14T03:20:20;5.38;;;2.20;;
59308;SDS011;48433;53.016;-2.260;2023-03-14T03:22:47;4.78;;;1.95;;
59308;SDS011;48433;53.016;-2.260;2023-03-14T03:25:16;4.47;;;2.38;;
59308;SDS011;48433;53.016;-2.260;2023-03-14T03:27:45;5.65;;;2.05;;
59308;SDS011;48433;53.016;-2.260;2023-03-14T03:30:16;5.38;;;2.15;;
59308;SDS011;48433;53.016;-2.260;2023-03-14T03:32:45;3.17;;;1.60;;
59308;SDS011;48433;53.016;-2.260;2023-03-14T03:35:14;3.53;;;1.70;;
59308;SDS011;48433;53.016;-2.260;2023-03-14T03:37:41;5.65;;;1.85;;
59308;SDS011;48433;53.016;-2.260;2023-03-14T03:40:10;5.60;;;2.00;;
59308;SDS011;48433;53.016;-2.260;2023-03-14T03:42:38;6.45;;;2.03;;
59308;SDS011;48433;53.016;-2.260;2023-03-14T03:45:08;4.88;;;1.85;;
59308;SDS011;48433;53.016;-2.260;2023-03-14T03:47:43;4.57;;;1.70;;
59308;SDS011;48433;53.016;-2.260;2023-03-14T03:50:11;4.13;;;1.80;;
59308;SDS011;48433;53.016;-2.260;2023-03-14T03:52:38;4.57;;;1.85;;
59308;SDS011;48433;53.016;-2.260;2023-03-14T03:55:06;3.33;;;1.50;;
59308;SDS011;48433;53.016;-2.260;2023-03-14T03:57:35;4.82;;;1.77;;
59308;SDS011;48433;53.016;-2.260;2023-03-14T04:00:03;4.30;;;1.83;;
59308;SDS011;48433;53.016;-2.260;2023-03-14T04:02:40;3.50;;;1.65;;
59308;SDS011;48433;53.016;-2.260;2023-03-14T04:05:11;4.20;;;1.98;;
59308;SDS011;48433;53.016;-2.260;2023-03-14T04:07:46;5.82;;;1.88;;
59308;SDS011;48433;53.016;-2.260;2023-03-14T04:10:18;4.70;;;2.20;;
59308;SDS011;48433;53.016;-2.260;2023-03-14T04:13:00;4.90;;;2.40;;
59308;SDS011;48433;53.016;-2.260;2023-03-14T04:15:31;6.88;;;2.22;;
59308;SDS011;48433;53.016;-2.260;2023-03-14T04:18:02;4.68;;;2.33;;
59308;SDS011;48433;53.016;-2.260;2023-03-14T04:20:33;5.13;;;1.90;;
59308;SDS011;48433;53.016;-2.260;2023-03-14T04:25:30;4.85;;;1.95;;
59308;SDS011;48433;53.016;-2.260;2023-03-14T04:30:32;3.67;;;1.90;;
59308;SDS011;48433;53.016;-2.260;2023-03-14T04:33:06;7.65;;;2.00;;
59308;SDS011;48433;53.016;-2.260;2023-03-14T04:35:38;5.20;;;1.67;;
59308;SDS011;48433;53.016;-2.260;2023-03-14T04:38:09;5.30;;;2.22;;
59308;SDS011;48433;53.016;-2.260;2023-03-14T04:40:37;4.82;;;2.20;;
59308;SDS011;48433;53.016;-2.260;2023-03-14T04:43:07;6.40;;;2.22;;
59308;SDS011;48433;53.016;-2.260;2023-03-14T04:45:36;7.40;;;2.00;;
59308;SDS011;48433;53.016;-2.260;2023-03-14T04:48:06;8.43;;;2.17;;
59308;SDS011;48433;53.016;-2.260;2023-03-14T04:50:34;7.35;;;2.20;;
59308;SDS011;48433;53.016;-2.260;2023-03-14T04:53:02;4.90;;;2.25;;
59308;SDS011;48433;53.016;-2.260;2023-03-14T04:55:30;6.13;;;2.20;;
59308;SDS011;48433;53.016;-2.260;2023-03-14T04:57:59;7.78;;;2.53;;
59308;SDS011;48433;53.016;-2.260;2023-03-14T05:00:27;8.52;;;2.65;;
59308;SDS011;48433;53.016;-2.260;2023-03-14T05:03:24;5.85;;;2.83;;
59308;SDS011;48433;53.016;-2.260;2023-03-14T05:06:04;5.03;;;2.00;;
59308;SDS011;48433;53.016;-2.260;2023-03-14T05:08:53;4.38;;;2.03;;
59308;SDS011;48433;53.016;-2.260;2023-03-14T05:11:36;4.78;;;1.95;;
59308;SDS011;48433;53.016;-2.260;2023-03-14T05:14:17;5.88;;;2.15;;
59308;SDS011;48433;53.016;-2.260;2023-03-14T05:17:04;8.07;;;2.70;;
59308;SDS011;48433;53.016;-2.260;2023-03-14T05:19:57;8.75;;;3.05;;
59308;SDS011;48433;53.016;-2.260;2023-03-14T05:22:36;6.03;;;2.33;;
59308;SDS011;48433;53.016;-2.260;2023-03-14T05:25:24;7.57;;;2.42;;
59308;SDS011;48433;53.016;-2.260;2023-03-14T05:28:29;6.07;;;2.30;;
59308;SDS011;48433;53.016;-2.260;2023-03-14T05:31:12;4.20;;;2.05;;
59308;SDS011;48433;53.016;-2.260;2023-03-14T05:33:58;5.38;;;2.00;;
59308;SDS011;48433;53.016;-2.260;2023-03-14T05:36:58;3.85;;;1.70;;
59308;SDS011;48433;53.016;-2.260;2023-03-14T05:39:45;4.50;;;2.00;;
59308;SDS011;48433;53.016;-2.260;2023-03-14T05:42:32;4.13;;;1.98;;
59308;SDS011;48433;53.016;-2.260;2023-03-14T05:45:33;4.38;;;2.00;;
59308;SDS011;48433;53.016;-2.260;2023-03-14T05:48:09;6.07;;;2.30;;
59308;SDS011;48433;53.016;-2.260;2023-03-14T05:50:56;6.72;;;2.60;;
59308;SDS011;48433;53.016;-2.260;2023-03-14T05:53:58;7.68;;;2.42;;
59308;SDS011;48433;53.016;-2.260;2023-03-14T05:56:44;5.38;;;2.42;;
59308;SDS011;48433;53.016;-2.260;2023-03-14T05:59:30;5.53;;;3.20;;
59308;SDS011;48433;53.016;-2.260;2023-03-14T06:02:20;8.32;;;3.85;;
59308;SDS011;48433;53.016;-2.260;2023-03-14T06:04:57;8.35;;;3.17;;
59308;SDS011;48433;53.016;-2.260;2023-03-14T06:07:25;8.32;;;2.85;;
59308;SDS011;48433;53.016;-2.260;2023-03-14T06:09:53;14.25;;;4.20;;
59308;SDS011;48433;53.016;-2.260;2023-03-14T06:12:21;9.52;;;3.60;;
59308;SDS011;48433;53.016;-2.260;2023-03-14T06:14:49;10.40;;;3.80;;
59308;SDS011;48433;53.016;-2.260;2023-03-14T06:17:17;9.55;;;3.50;;
59308;SDS011;48433;53.016;-2.260;2023-03-14T06:19:54;11.93;;;4.28;;
59308;SDS011;48433;53.016;-2.260;2023-03-14T06:22:22;10.68;;;4.07;;
59308;SDS011;48433;53.016;-2.260;2023-03-14T06:24:50;12.50;;;4.07;;
59308;SDS011;48433;53.016;-2.260;2023-03-14T06:27:19;11.82;;;4.70;;
59308;SDS011;48433;53.016;-2.260;2023-03-14T06:29:47;11.55;;;3.90;;
59308;SDS011;48433;53.016;-2.260;2023-03-14T06:32:15;10.65;;;4.45;;
59308;SDS011;48433;53.016;-2.260;2023-03-14T06:34:45;12.32;;;3.85;;
59308;SDS011;48433;53.016;-2.260;2023-03-14T06:37:13;12.93;;;3.63;;
59308;SDS011;48433;53.016;-2.260;2023-03-14T06:39:44;9.93;;;3.03;;
59308;SDS011;48433;53.016;-2.260;2023-03-14T06:42:22;10.10;;;3.95;;
59308;SDS011;48433;53.016;-2.260;2023-03-14T06:44:51;10.02;;;2.65;;
59308;SDS011;48433;53.016;-2.260;2023-03-14T06:47:19;14.98;;;3.47;;
59308;SDS011;48433;53.016;-2.260;2023-03-14T06:49:47;10.80;;;3.20;;
59308;SDS011;48433;53.016;-2.260;2023-03-14T06:52:17;9.63;;;3.03;;
59308;SDS011;48433;53.016;-2.260;2023-03-14T06:54:45;7.43;;;2.28;;
59308;SDS011;48433;53.016;-2.260;2023-03-14T06:57:13;11.32;;;2.85;;
59308;SDS011;48433;53.016;-2.260;2023-03-14T06:59:41;9.18;;;3.08;;
59308;SDS011;48433;53.016;-2.260;2023-03-14T07:02:12;13.45;;;3.13;;
59308;SDS011;48433;53.016;-2.260;2023-03-14T07:04:41;14.55;;;2.78;;
59308;SDS011;48433;53.016;-2.260;2023-03-14T07:07:10;14.02;;;2.88;;
59308;SDS011;48433;53.016;-2.260;2023-03-14T07:09:37;10.18;;;2.50;;
59308;SDS011;48433;53.016;-2.260;2023-03-14T07:12:06;16.45;;;3.60;;
59308;SDS011;48433;53.016;-2.260;2023-03-14T07:14:34;13.52;;;2.92;;
59308;SDS011;48433;53.016;-2.260;2023-03-14T07:17:01;22.00;;;4.45;;
59308;SDS011;48433;53.016;-2.260;2023-03-14T07:19:29;15.23;;;3.78;;
59308;SDS011;48433;53.016;-2.260;2023-03-14T07:21:57;11.75;;;3.17;;
59308;SDS011;48433;53.016;-2.260;2023-03-14T07:24:27;15.65;;;3.13;;
59308;SDS011;48433;53.016;-2.260;2023-03-14T07:26:55;13.05;;;3.20;;
59308;SDS011;48433;53.016;-2.260;2023-03-14T07:29:23;13.90;;;3.35;;
59308;SDS011;48433;53.016;-2.260;2023-03-14T07:31:51;14.90;;;3.30;;
59308;SDS011;48433;53.016;-2.260;2023-03-14T07:34:20;12.38;;;3.13;;
59308;SDS011;48433;53.016;-2.260;2023-03-14T07:36:48;11.65;;;2.85;;
59308;SDS011;48433;53.016;-2.260;2023-03-14T07:39:17;13.55;;;4.28;;
59308;SDS011;48433;53.016;-2.260;2023-03-14T07:42:00;12.38;;;2.95;;
59308;SDS011;48433;53.016;-2.260;2023-03-14T07:44:42;31.05;;;4.75;;
59308;SDS011;48433;53.016;-2.260;2023-03-14T07:47:10;21.10;;;4.13;;
59308;SDS011;48433;53.016;-2.260;2023-03-14T07:49:38;15.98;;;3.80;;
59308;SDS011;48433;53.016;-2.260;2023-03-14T07:52:06;25.98;;;4.88;;
59308;SDS011;48433;53.016;-2.260;2023-03-14T07:54:34;17.15;;;4.00;;
59308;SDS011;48433;53.016;-2.260;2023-03-14T07:57:01;22.92;;;4.43;;
59308;SDS011;48433;53.016;-2.260;2023-03-14T07:59:30;15.07;;;4.00;;
59308;SDS011;48433;53.016;-2.260;2023-03-14T08:01:58;15.73;;;4.43;;
59308;SDS011;48433;53.016;-2.260;2023-03-14T08:04:26;16.65;;;3.70;;
59308;SDS011;48433;53.016;-2.260;2023-03-14T08:06:54;13.10;;;3.90;;
59308;SDS011;48433;53.016;-2.260;2023-03-14T08:09:21;21.88;;;4.47;;
59308;SDS011;48433;53.016;-2.260;2023-03-14T08:11:49;16.00;;;3.88;;
59308;SDS011;48433;53.016;-2.260;2023-03-14T08:14:17;15.52;;;4.47;;
59308;SDS011;48433;53.016;-2.260;2023-03-14T08:16:45;12.15;;;3.25;;
59308;SDS011;48433;53.016;-2.260;2023-03-14T08:19:13;21.30;;;5.70;;
59308;SDS011;48433;53.016;-2.260;2023-03-14T08:21:41;13.68;;;3.28;;
59308;SDS011;48433;53.016;-2.260;2023-03-14T08:24:09;14.07;;;4.40;;
59308;SDS011;48433;53.016;-2.260;2023-03-14T08:26:36;13.65;;;3.58;;
59308;SDS011;48433;53.016;-2.260;2023-03-14T08:29:04;14.60;;;3.47;;
59308;SDS011;48433;53.016;-2.260;2023-03-14T08:31:32;16.08;;;3.65;;
59308;SDS011;48433;53.016;-2.260;2023-03-14T08:34:00;17.27;;;4.78;;
59308;SDS011;48433;53.016;-2.260;2023-03-14T08:36:29;14.80;;;3.30;;
59308;SDS011;48433;53.016;-2.260;2023-03-14T08:38:58;16.25;;;3.17;;
59308;SDS011;48433;53.016;-2.260;2023-03-14T08:41:26;13.68;;;3.05;;
59308;SDS011;48433;53.016;-2.260;2023-03-14T08:43:54;15.07;;;3.58;;
59308;SDS011;48433;53.016;-2.260;2023-03-14T08:46:21;12.93;;;3.50;;
59308;SDS011;48433;53.016;-2.260;2023-03-14T08:48:49;20.83;;;5.10;;
59308;SDS011;48433;53.016;-2.260;2023-03-14T08:51:17;13.63;;;3.38;;
59308;SDS011;48433;53.016;-2.260;2023-03-14T08:53:46;10.43;;;3.40;;
59308;SDS011;48433;53.016;-2.260;2023-03-14T08:56:14;13.00;;;3.40;;
59308;SDS011;48433;53.016;-2.260;2023-03-14T08:58:42;11.57;;;2.92;;
59308;SDS011;48433;53.016;-2.260;2023-03-14T09:01:10;12.57;;;2.92;;
59308;SDS011;48433;53.016;-2.260;2023-03-14T09:03:38;8.85;;;2.67;;
59308;SDS011;48433;53.016;-2.260;2023-03-14T09:06:08;13.43;;;2.80;;
59308;SDS011;48433;53.016;-2.260;2023-03-14T09:08:36;9.73;;;2.83;;
59308;SDS011;48433;53.016;-2.260;2023-03-14T09:11:08;15.43;;;3.85;;
59308;SDS011;48433;53.016;-2.260;2023-03-14T09:13:36;15.48;;;3.60;;
59308;SDS011;48433;53.016;-2.260;2023-03-14T09:16:04;12.63;;;2.72;;
59308;SDS011;48433;53.016;-2.260;2023-03-14T09:18:33;9.50;;;3.13;;
59308;SDS011;48433;53.016;-2.260;2023-03-14T09:21:00;14.48;;;3.25;;
59308;SDS011;48433;53.016;-2.260;2023-03-14T09:23:28;12.38;;;2.97;;
59308;SDS011;48433;53.016;-2.260;2023-03-14T09:25:57;14.60;;;4.45;;
59308;SDS011;48433;53.016;-2.260;2023-03-14T09:28:25;12.10;;;3.00;;
59308;SDS011;48433;53.016;-2.260;2023-03-14T09:30:53;14.75;;;3.17;;
59308;SDS011;48433;53.016;-2.260;2023-03-14T09:33:21;13.88;;;3.17;;
59308;SDS011;48433;53.016;-2.260;2023-03-14T09:35:49;14.27;;;3.13;;
59308;SDS011;48433;53.016;-2.260;2023-03-14T09:38:17;10.70;;;2.92;;
59308;SDS011;48433;53.016;-2.260;2023-03-14T09:40:47;12.85;;;3.05;;
59308;SDS011;48433;53.016;-2.260;2023-03-14T09:43:16;17.25;;;3.22;;
59308;SDS011;48433;53.016;-2.260;2023-03-14T09:45:44;15.98;;;3.25;;
59308;SDS011;48433;53.016;-2.260;2023-03-14T09:48:16;15.70;;;3.38;;
59308;SDS011;48433;53.016;-2.260;2023-03-14T09:50:51;17.98;;;3.28;;
59308;SDS011;48433;53.016;-2.260;2023-03-14T09:53:25;16.75;;;3.20;;
59308;SDS011;48433;53.016;-2.260;2023-03-14T09:55:55;12.82;;;3.00;;
59308;SDS011;48433;53.016;-2.260;2023-03-14T09:58:25;16.13;;;3.20;;
59308;SDS011;48433;53.016;-2.260;2023-03-14T10:00:54;13.50;;;2.85;;
59308;SDS011;48433;53.016;-2.260;2023-03-14T10:03:31;12.48;;;2.20;;
59308;SDS011;48433;53.016;-2.260;2023-03-14T10:06:00;12.88;;;3.15;;
59308;SDS011;48433;53.016;-2.260;2023-03-14T10:08:28;14.63;;;3.03;;
59308;SDS011;48433;53.016;-2.260;2023-03-14T10:10:56;12.95;;;3.40;;
59308;SDS011;48433;53.016;-2.260;2023-03-14T10:13:24;14.63;;;3.35;;
59308;SDS011;48433;53.016;-2.260;2023-03-14T10:15:55;12.30;;;3.40;;
59308;SDS011;48433;53.016;-2.260;2023-03-14T10:18:28;13.35;;;3.03;;
59308;SDS011;48433;53.016;-2.260;2023-03-14T10:21:41;13.90;;;2.97;;
59308;SDS011;48433;53.016;-2.260;2023-03-14T10:24:16;11.65;;;2.50;;
59308;SDS011;48433;53.016;-2.260;2023-03-14T10:26:53;12.80;;;3.00;;
59308;SDS011;48433;53.016;-2.260;2023-03-14T10:29:22;10.70;;;3.13;;
59308;SDS011;48433;53.016;-2.260;2023-03-14T10:31:51;12.68;;;2.95;;
59308;SDS011;48433;53.016;-2.260;2023-03-14T10:34:31;12.82;;;2.88;;
59308;SDS011;48433;53.016;-2.260;2023-03-14T10:37:14;11.00;;;3.10;;
59308;SDS011;48433;53.016;-2.260;2023-03-14T10:39:58;18.30;;;2.92;;
59308;SDS011;48433;53.016;-2.260;2023-03-14T10:42:33;13.18;;;3.13;;
59308;SDS011;48433;53.016;-2.260;2023-03-14T10:45:15;10.77;;;3.00;;
59308;SDS011;48433;53.016;-2.260;2023-03-14T10:47:49;11.63;;;2.90;;
59308;SDS011;48433;53.016;-2.260;2023-03-14T10:50:27;10.93;;;3.45;;
59308;SDS011;48433;53.016;-2.260;2023-03-14T10:52:57;10.77;;;2.97;;
59308;SDS011;48433;53.016;-2.260;2023-03-14T10:55:39;11.18;;;2.90;;
59308;SDS011;48433;53.016;-2.260;2023-03-14T10:58:18;17.08;;;3.33;;
59308;SDS011;48433;53.016;-2.260;2023-03-14T11:00:52;17.85;;;3.20;;
59308;SDS011;48433;53.016;-2.260;2023-03-14T11:03:27;10.82;;;2.35;;
59308;SDS011;48433;53.016;-2.260;2023-03-14T11:06:10;8.50;;;2.80;;
59308;SDS011;48433;53.016;-2.260;2023-03-14T11:11:24;11.95;;;3.55;;
59308;SDS011;48433;53.016;-2.260;2023-03-14T11:16:52;12.80;;;2.65;;
59308;SDS011;48433;53.016;-2.260;2023-03-14T11:19:36;14.50;;;2.53;;
59308;SDS011;48433;53.016;-2.260;2023-03-14T11:25:04;9.48;;;2.38;;
59308;SDS011;48433;53.016;-2.260;2023-03-14T11:27:50;12.18;;;2.08;;
59308;SDS011;48433;53.016;-2.260;2023-03-14T11:33:43;11.35;;;2.58;;
59308;SDS011;48433;53.016;-2.260;2023-03-14T11:36:33;11.88;;;1.90;;
59308;SDS011;48433;53.016;-2.260;2023-03-14T11:39:13;7.53;;;1.35;;
59308;SDS011;48433;53.016;-2.260;2023-03-14T11:41:46;10.75;;;2.60;;
59308;SDS011;48433;53.016;-2.260;2023-03-14T11:44:30;7.95;;;2.08;;
59308;SDS011;48433;53.016;-2.260;2023-03-14T11:47:13;8.52;;;1.88;;
59308;SDS011;48433;53.016;-2.260;2023-03-14T11:52:20;9.43;;;2.13;;
59308;SDS011;48433;53.016;-2.260;2023-03-14T11:57:53;10.68;;;2.20;;
59308;SDS011;48433;53.016;-2.260;2023-03-14T12:00:25;8.27;;;2.15;;
59308;SDS011;48433;53.016;-2.260;2023-03-14T12:11:13;9.57;;;2.38;;
59308;SDS011;48433;53.016;-2.260;2023-03-14T12:13:41;7.72;;;1.70;;
59308;SDS011;48433;53.016;-2.260;2023-03-14T12:18:51;7.22;;;1.70;;
59308;SDS011;48433;53.016;-2.260;2023-03-14T12:21:20;8.02;;;1.70;;
59308;SDS011;48433;53.016;-2.260;2023-03-14T12:26:20;12.48;;;2.10;;
59308;SDS011;48433;53.016;-2.260;2023-03-14T12:28:51;10.68;;;2.00;;
59308;SDS011;48433;53.016;-2.260;2023-03-14T12:31:37;8.32;;;1.98;;
59308;SDS011;48433;53.016;-2.260;2023-03-14T12:39:33;8.38;;;2.10;;
59308;SDS011;48433;53.016;-2.260;2023-03-14T12:42:36;12.02;;;2.83;;
59308;SDS011;48433;53.016;-2.260;2023-03-14T12:47:52;9.00;;;1.83;;
59308;SDS011;48433;53.016;-2.260;2023-03-14T12:50:26;6.43;;;1.73;;
59308;SDS011;48433;53.016;-2.260;2023-03-14T12:56:20;7.13;;;1.63;;
59308;SDS011;48433;53.016;-2.260;2023-03-14T13:01:53;5.82;;;1.65;;
59308;SDS011;48433;53.016;-2.260;2023-03-14T13:07:11;5.78;;;1.33;;
59308;SDS011;48433;53.016;-2.260;2023-03-14T13:15:16;7.97;;;1.30;;
59308;SDS011;48433;53.016;-2.260;2023-03-14T13:17:46;5.97;;;1.38;;
59308;SDS011;48433;53.016;-2.260;2023-03-14T13:20:19;7.82;;;1.70;;
59308;SDS011;48433;53.016;-2.260;2023-03-14T13:22:53;7.07;;;2.08;;
59308;SDS011;48433;53.016;-2.260;2023-03-14T13:25:21;4.25;;;1.48;;
59308;SDS011;48433;53.016;-2.260;2023-03-14T13:27:52;6.13;;;1.92;;
59308;SDS011;48433;53.016;-2.260;2023-03-14T13:30:23;8.93;;;1.80;;
59308;SDS011;48433;53.016;-2.260;2023-03-14T13:32:55;8.63;;;2.03;;
59308;SDS011;48433;53.016;-2.260;2023-03-14T13:35:29;7.30;;;1.45;;
59308;SDS011;48433;53.016;-2.260;2023-03-14T13:38:05;5.70;;;1.52;;
59308;SDS011;48433;53.016;-2.260;2023-03-14T13:40:38;9.43;;;1.40;;
59308;SDS011;48433;53.016;-2.260;2023-03-14T13:45:52;9.43;;;2.55;;
59308;SDS011;48433;53.016;-2.260;2023-03-14T13:48:29;6.28;;;1.60;;
59308;SDS011;48433;53.016;-2.260;2023-03-14T13:51:00;6.70;;;2.33;;
59308;SDS011;48433;53.016;-2.260;2023-03-14T13:53:34;9.48;;;1.70;;
59308;SDS011;48433;53.016;-2.260;2023-03-14T13:56:11;7.32;;;1.80;;
59308;SDS011;48433;53.016;-2.260;2023-03-14T13:58:40;10.52;;;2.60;;
59308;SDS011;48433;53.016;-2.260;2023-03-14T14:01:13;10.70;;;1.85;;
59308;SDS011;48433;53.016;-2.260;2023-03-14T14:03:48;17.25;;;2.35;;
59308;SDS011;48433;53.016;-2.260;2023-03-14T14:09:02;10.98;;;2.17;;
59308;SDS011;48433;53.016;-2.260;2023-03-14T14:17:12;7.05;;;1.77;;
59308;SDS011;48433;53.016;-2.260;2023-03-14T14:20:02;9.02;;;1.85;;
59308;SDS011;48433;53.016;-2.260;2023-03-14T14:22:33;4.90;;;1.35;;
59308;SDS011;48433;53.016;-2.260;2023-03-14T14:25:02;12.30;;;2.08;;
59308;SDS011;48433;53.016;-2.260;2023-03-14T14:27:36;5.28;;;1.55;;
59308;SDS011;48433;53.016;-2.260;2023-03-14T14:32:46;9.80;;;1.58;;
59308;SDS011;48433;53.016;-2.260;2023-03-14T14:35:26;4.10;;;1.40;;
59308;SDS011;48433;53.016;-2.260;2023-03-14T14:37:59;5.43;;;1.55;;
59308;SDS011;48433;53.016;-2.260;2023-03-14T14:40:28;7.90;;;1.48;;
59308;SDS011;48433;53.016;-2.260;2023-03-14T14:43:04;6.03;;;2.08;;
59308;SDS011;48433;53.016;-2.260;2023-03-14T14:45:33;9.02;;;1.83;;
59308;SDS011;48433;53.016;-2.260;2023-03-14T14:50:32;12.85;;;2.35;;
59308;SDS011;48433;53.016;-2.260;2023-03-14T14:53:01;9.60;;;1.70;;
59308;SDS011;48433;53.016;-2.260;2023-03-14T14:55:33;6.88;;;1.20;;
59308;SDS011;48433;53.016;-2.260;2023-03-14T14:58:16;10.25;;;1.98;;
59308;SDS011;48433;53.016;-2.260;2023-03-14T15:00:51;8.10;;;1.88;;
59308;SDS011;48433;53.016;-2.260;2023-03-14T15:03:30;7.38;;;2.38;;
59308;SDS011;48433;53.016;-2.260;2023-03-14T15:05:59;12.07;;;2.38;;
59308;SDS011;48433;53.016;-2.260;2023-03-14T15:08:28;8.35;;;1.52;;
59308;SDS011;48433;53.016;-2.260;2023-03-14T15:10:56;3.83;;;1.23;;
59308;SDS011;48433;53.016;-2.260;2023-03-14T15:13:24;9.27;;;2.00;;
59308;SDS011;48433;53.016;-2.260;2023-03-14T15:15:52;3.90;;;1.42;;
59308;SDS011;48433;53.016;-2.260;2023-03-14T15:18:24;4.30;;;1.20;;
59308;SDS011;48433;53.016;-2.260;2023-03-14T15:20:57;5.07;;;1.38;;
59308;SDS011;48433;53.016;-2.260;2023-03-14T15:23:24;6.15;;;1.65;;
59308;SDS011;48433;53.016;-2.260;2023-03-14T15:25:52;10.95;;;1.95;;
59308;SDS011;48433;53.016;-2.260;2023-03-14T15:28:23;7.32;;;1.58;;
59308;SDS011;48433;53.016;-2.260;2023-03-14T15:30:53;7.80;;;2.05;;
59308;SDS011;48433;53.016;-2.260;2023-03-14T15:33:24;9.75;;;1.95;;
59308;SDS011;48433;53.016;-2.260;2023-03-14T15:35:53;12.95;;;2.67;;
59308;SDS011;48433;53.016;-2.260;2023-03-14T15:38:21;5.88;;;1.85;;
59308;SDS011;48433;53.016;-2.260;2023-03-14T15:40:52;5.23;;;1.40;;
59308;SDS011;48433;53.016;-2.260;2023-03-14T15:43:20;9.05;;;2.50;;
59308;SDS011;48433;53.016;-2.260;2023-03-14T15:45:48;6.68;;;2.13;;
59308;SDS011;48433;53.016;-2.260;2023-03-14T15:48:18;8.63;;;2.30;;
59308;SDS011;48433;53.016;-2.260;2023-03-14T15:50:48;4.65;;;1.77;;
59308;SDS011;48433;53.016;-2.260;2023-03-14T15:53:15;5.30;;;1.50;;
59308;SDS011;48433;53.016;-2.260;2023-03-14T15:55:43;5.88;;;1.58;;
59308;SDS011;48433;53.016;-2.260;2023-03-14T15:58:16;3.90;;;1.23;;
59308;SDS011;48433;53.016;-2.260;2023-03-14T16:00:48;4.97;;;1.55;;
59308;SDS011;48433;53.016;-2.260;2023-03-14T16:03:16;5.57;;;1.45;;
59308;SDS011;48433;53.016;-2.260;2023-03-14T16:05:44;6.03;;;1.52;;
59308;SDS011;48433;53.016;-2.260;2023-03-14T16:08:12;8.25;;;2.05;;
59308;SDS011;48433;53.016;-2.260;2023-03-14T16:10:39;16.77;;;6.55;;
59308;SDS011;48433;53.016;-2.260;2023-03-14T16:13:08;11.95;;;4.50;;
59308;SDS011;48433;53.016;-2.260;2023-03-14T16:15:36;14.02;;;4.78;;
59308;SDS011;48433;53.016;-2.260;2023-03-14T16:18:03;13.32;;;5.53;;
59308;SDS011;48433;53.016;-2.260;2023-03-14T16:21:00;18.25;;;7.72;;
59308;SDS011;48433;53.016;-2.260;2023-03-14T16:23:32;13.00;;;4.70;;
59308;SDS011;48433;53.016;-2.260;2023-03-14T16:26:05;8.80;;;3.50;;
59308;SDS011;48433;53.016;-2.260;2023-03-14T16:28:34;9.82;;;4.63;;
59308;SDS011;48433;53.016;-2.260;2023-03-14T16:31:12;7.22;;;3.20;;